sensor_id;sensor_type;location;lat;lon;timestamp;pressure;altitude;pressure_sealevel;temperature;humidity
20825;BME280;10573;50.936;6.978;2023-09-07T00:00:11;101539.75;;;21.88;61.32
20825;BME280;10573;50.936;6.978;2023-09-07T00:02:37;101544.47;;;21.88;61.20
20825;BME280;10573;50.936;6.978;2023-09-07T00:05:04;101539.50;;;21.83;61.59
20825;BME280;10573;50.936;6.978;2023-09-07T00:07:31;101544.84;;;21.85;61.01
20825;BME280;10573;50.936;6.978;2023-09-07T00:09:56;101529.13;;;21.92;60.47
20825;BME280;10573;50.936;6.978;2023-09-07T00:12:21;101533.22;;;21.96;59.43
20825;BME280;10573;50.936;6.978;2023-09-07T00:14:47;101531.06;;;21.98;59.61
20825;BME280;10573;50.936;6.978;2023-09-07T00:17:12;101534.16;;;22.10;59.26
20825;BME280;10573;50.936;6.978;2023-09-07T00:19:38;101535.63;;;22.06;58.71
20825;BME280;10573;50.936;6.978;2023-09-07T00:22:04;101534.94;;;21.97;59.46
20825;BME280;10573;50.936;6.978;2023-09-07T00:24:30;101530.69;;;22.01;59.11
20825;BME280;10573;50.936;6.978;2023-09-07T00:26:57;101523.38;;;21.93;59.41
20825;BME280;10573;50.936;6.978;2023-09-07T00:29:22;101524.88;;;21.96;59.65
20825;BME280;10573;50.936;6.978;2023-09-07T00:31:48;101527.81;;;21.88;59.59
20825;BME280;10573;50.936;6.978;2023-09-07T00:34:13;101527.34;;;21.84;60.02
20825;BME280;10573;50.936;6.978;2023-09-07T00:36:39;101535.69;;;21.84;59.93
20825;BME280;10573;50.936;6.978;2023-09-07T00:39:04;101530.88;;;21.71;60.37
20825;BME280;10573;50.936;6.978;2023-09-07T00:41:30;101536.25;;;21.73;60.74
20825;BME280;10573;50.936;6.978;2023-09-07T00:43:55;101527.03;;;21.51;61.29
20825;BME280;10573;50.936;6.978;2023-09-07T00:46:21;101526.91;;;21.59;60.98
20825;BME280;10573;50.936;6.978;2023-09-07T00:48:48;101518.44;;;21.45;61.49
20825;BME280;10573;50.936;6.978;2023-09-07T00:51:13;101532.47;;;21.59;60.94
20825;BME280;10573;50.936;6.978;2023-09-07T00:53:39;101524.88;;;21.46;61.39
20825;BME280;10573;50.936;6.978;2023-09-07T00:56:06;101532.25;;;21.39;61.75
20825;BME280;10573;50.936;6.978;2023-09-07T00:58:32;101529.44;;;21.54;61.54
20825;BME280;10573;50.936;6.978;2023-09-07T01:00:59;101523.94;;;21.60;61.15
20825;BME280;10573;50.936;6.978;2023-09-07T01:03:25;101527.34;;;21.56;61.02
20825;BME280;10573;50.936;6.978;2023-09-07T01:08:23;101529.88;;;21.36;61.77
20825;BME280;10573;50.936;6.978;2023-09-07T01:10:49;101527.44;;;21.26;62.11
20825;BME280;10573;50.936;6.978;2023-09-07T01:13:14;101518.72;;;21.29;61.99
20825;BME280;10573;50.936;6.978;2023-09-07T01:15:39;101521.22;;;21.24;62.02
20825;BME280;10573;50.936;6.978;2023-09-07T01:18:05;101513.44;;;21.12;62.62
20825;BME280;10573;50.936;6.978;2023-09-07T01:20:33;101517.13;;;21.20;62.19
20825;BME280;10573;50.936;6.978;2023-09-07T01:23:00;101510.41;;;21.07;62.46
20825;BME280;10573;50.936;6.978;2023-09-07T01:25:26;101518.59;;;21.16;62.89
20825;BME280;10573;50.936;6.978;2023-09-07T01:27:53;101511.44;;;21.06;62.68
20825;BME280;10573;50.936;6.978;2023-09-07T01:30:18;101505.28;;;21.26;62.19
20825;BME280;10573;50.936;6.978;2023-09-07T01:32:44;101505.00;;;21.21;62.62
20825;BME280;10573;50.936;6.978;2023-09-07T01:35:10;101504.47;;;21.10;62.72
20825;BME280;10573;50.936;6.978;2023-09-07T01:37:36;101500.91;;;20.95;63.29
20825;BME280;10573;50.936;6.978;2023-09-07T01:40:02;101508.22;;;21.03;62.80
20825;BME280;10573;50.936;6.978;2023-09-07T01:42:32;101502.59;;;20.96;62.92
20825;BME280;10573;50.936;6.978;2023-09-07T01:44:58;101503.75;;;20.87;63.45
20825;BME280;10573;50.936;6.978;2023-09-07T01:47:23;101507.91;;;20.76;63.79
20825;BME280;10573;50.936;6.978;2023-09-07T01:49:48;101505.31;;;20.74;63.52
20825;BME280;10573;50.936;6.978;2023-09-07T01:52:14;101506.28;;;20.82;63.40
20825;BME280;10573;50.936;6.978;2023-09-07T01:54:39;101503.88;;;20.78;63.47
20825;BME280;10573;50.936;6.978;2023-09-07T01:57:04;101505.13;;;20.91;63.24
20825;BME280;10573;50.936;6.978;2023-09-07T01:59:30;101504.03;;;20.92;63.41
20825;BME280;10573;50.936;6.978;2023-09-07T02:01:55;101514.47;;;20.90;63.42
20825;BME280;10573;50.936;6.978;2023-09-07T02:04:20;101503.19;;;20.91;62.96
20825;BME280;10573;50.936;6.978;2023-09-07T02:06:46;101505.47;;;20.88;63.20
20825;BME280;10573;50.936;6.978;2023-09-07T02:09:11;101508.94;;;20.90;63.07
20825;BME280;10573;50.936;6.978;2023-09-07T02:11:36;101507.97;;;20.83;63.18
20825;BME280;10573;50.936;6.978;2023-09-07T02:14:02;101507.72;;;20.77;63.27
20825;BME280;10573;50.936;6.978;2023-09-07T02:16:27;101505.72;;;20.71;63.59
20825;BME280;10573;50.936;6.978;2023-09-07T02:19:02;101501.91;;;20.72;63.23
20825;BME280;10573;50.936;6.978;2023-09-07T02:21:32;101507.44;;;20.72;63.16
20825;BME280;10573;50.936;6.978;2023-09-07T02:23:57;101503.44;;;20.45;64.00
20825;BME280;10573;50.936;6.978;2023-09-07T02:26:23;101504.41;;;20.52;63.86
20825;BME280;10573;50.936;6.978;2023-09-07T02:28:48;101502.19;;;20.48;63.96
20825;BME280;10573;50.936;6.978;2023-09-07T02:31:13;101500.94;;;20.50;64.07
20825;BME280;10573;50.936;6.978;2023-09-07T02:33:39;101504.19;;;20.54;64.03
20825;BME280;10573;50.936;6.978;2023-09-07T02:36:04;101502.47;;;20.53;63.70
20825;BME280;10573;50.936;6.978;2023-09-07T02:38:30;101505.03;;;20.54;63.97
20825;BME280;10573;50.936;6.978;2023-09-07T02:40:57;101503.34;;;20.53;63.85
20825;BME280;10573;50.936;6.978;2023-09-07T02:43:22;101502.69;;;20.36;64.26
20825;BME280;10573;50.936;6.978;2023-09-07T02:45:49;101498.69;;;20.24;64.57
20825;BME280;10573;50.936;6.978;2023-09-07T02:48:15;101498.41;;;20.04;65.18
20825;BME280;10573;50.936;6.978;2023-09-07T02:51:14;101504.59;;;20.21;64.82
20825;BME280;10573;50.936;6.978;2023-09-07T02:53:40;101500.03;;;20.28;64.85
20825;BME280;10573;50.936;6.978;2023-09-07T02:56:05;101498.50;;;20.10;65.15
20825;BME280;10573;50.936;6.978;2023-09-07T02:58:32;101499.72;;;20.23;64.72
20825;BME280;10573;50.936;6.978;2023-09-07T03:00:58;101504.47;;;20.29;64.57
20825;BME280;10573;50.936;6.978;2023-09-07T03:03:24;101500.78;;;20.22;64.73
20825;BME280;10573;50.936;6.978;2023-09-07T03:05:49;101498.19;;;20.20;64.81
20825;BME280;10573;50.936;6.978;2023-09-07T03:08:14;101498.84;;;20.22;64.81
20825;BME280;10573;50.936;6.978;2023-09-07T03:10:40;101502.78;;;20.13;65.03
20825;BME280;10573;50.936;6.978;2023-09-07T03:13:09;101505.72;;;20.11;64.78
20825;BME280;10573;50.936;6.978;2023-09-07T03:15:34;101503.44;;;20.00;64.85
20825;BME280;10573;50.936;6.978;2023-09-07T03:18:00;101504.38;;;19.92;65.03
20825;BME280;10573;50.936;6.978;2023-09-07T03:20:26;101505.06;;;20.09;64.38
20825;BME280;10573;50.936;6.978;2023-09-07T03:22:51;101498.31;;;19.97;64.85
20825;BME280;10573;50.936;6.978;2023-09-07T03:25:16;101499.44;;;20.03;64.81
20825;BME280;10573;50.936;6.978;2023-09-07T03:27:42;101501.53;;;20.16;64.22
20825;BME280;10573;50.936;6.978;2023-09-07T03:30:07;101506.00;;;20.02;64.52
20825;BME280;10573;50.936;6.978;2023-09-07T03:32:33;101496.28;;;20.06;64.36
20825;BME280;10573;50.936;6.978;2023-09-07T03:35:04;101498.50;;;19.95;64.97
20825;BME280;10573;50.936;6.978;2023-09-07T03:37:34;101497.91;;;20.00;64.65
20825;BME280;10573;50.936;6.978;2023-09-07T03:39:59;101499.34;;;19.96;65.04
20825;BME280;10573;50.936;6.978;2023-09-07T03:42:25;101496.19;;;19.99;64.83
20825;BME280;10573;50.936;6.978;2023-09-07T03:44:50;101500.88;;;19.99;64.67
20825;BME280;10573;50.936;6.978;2023-09-07T03:47:15;101501.16;;;19.89;64.85
20825;BME280;10573;50.936;6.978;2023-09-07T03:49:41;101494.56;;;19.90;65.05
20825;BME280;10573;50.936;6.978;2023-09-07T03:52:07;101495.25;;;19.92;64.75
20825;BME280;10573;50.936;6.978;2023-09-07T03:54:32;101488.81;;;19.91;64.62
20825;BME280;10573;50.936;6.978;2023-09-07T03:56:58;101494.25;;;19.85;64.94
20825;BME280;10573;50.936;6.978;2023-09-07T03:59:23;101485.91;;;19.93;64.74
20825;BME280;10573;50.936;6.978;2023-09-07T04:01:48;101490.69;;;19.76;65.36
20825;BME280;10573;50.936;6.978;2023-09-07T04:04:14;101492.03;;;19.80;65.16
20825;BME280;10573;50.936;6.978;2023-09-07T04:06:40;101492.63;;;19.75;65.34
20825;BME280;10573;50.936;6.978;2023-09-07T04:09:05;101495.69;;;19.81;64.96
20825;BME280;10573;50.936;6.978;2023-09-07T04:11:31;101495.72;;;19.72;65.09
20825;BME280;10573;50.936;6.978;2023-09-07T04:13:56;101499.06;;;19.68;65.58
20825;BME280;10573;50.936;6.978;2023-09-07T04:16:21;101499.53;;;19.71;65.43
20825;BME280;10573;50.936;6.978;2023-09-07T04:18:47;101485.81;;;19.63;65.61
20825;BME280;10573;50.936;6.978;2023-09-07T04:21:12;101501.69;;;19.23;66.21
20825;BME280;10573;50.936;6.978;2023-09-07T04:23:37;101496.16;;;19.46;65.96
20825;BME280;10573;50.936;6.978;2023-09-07T04:26:06;101497.41;;;19.43;65.86
20825;BME280;10573;50.936;6.978;2023-09-07T04:28:31;101490.25;;;19.49;65.84
20825;BME280;10573;50.936;6.978;2023-09-07T04:30:57;101491.97;;;19.50;65.71
20825;BME280;10573;50.936;6.978;2023-09-07T04:33:22;101496.69;;;19.41;65.72
20825;BME280;10573;50.936;6.978;2023-09-07T04:35:47;101504.34;;;19.39;66.11
20825;BME280;10573;50.936;6.978;2023-09-07T04:38:13;101500.16;;;19.43;65.68
20825;BME280;10573;50.936;6.978;2023-09-07T04:40:38;101501.25;;;19.34;65.91
20825;BME280;10573;50.936;6.978;2023-09-07T04:43:03;101503.53;;;19.31;65.95
20825;BME280;10573;50.936;6.978;2023-09-07T04:45:29;101506.09;;;19.32;66.02
20825;BME280;10573;50.936;6.978;2023-09-07T04:47:54;101507.44;;;19.36;65.67
20825;BME280;10573;50.936;6.978;2023-09-07T04:50:19;101499.84;;;19.38;65.82
20825;BME280;10573;50.936;6.978;2023-09-07T04:52:45;101506.09;;;19.32;65.59
20825;BME280;10573;50.936;6.978;2023-09-07T04:55:11;101510.66;;;19.25;65.80
20825;BME280;10573;50.936;6.978;2023-09-07T04:57:36;101509.97;;;19.23;65.99
20825;BME280;10573;50.936;6.978;2023-09-07T05:00:04;101517.72;;;19.27;65.66
20825;BME280;10573;50.936;6.978;2023-09-07T05:02:30;101512.50;;;19.33;65.16
20825;BME280;10573;50.936;6.978;2023-09-07T05:04:55;101512.00;;;19.29;65.37
20825;BME280;10573;50.936;6.978;2023-09-07T05:07:21;101518.75;;;19.26;65.29
20825;BME280;10573;50.936;6.978;2023-09-07T05:09:46;101518.09;;;19.24;65.22
20825;BME280;10573;50.936;6.978;2023-09-07T05:12:12;101511.31;;;19.27;65.19
20825;BME280;10573;50.936;6.978;2023-09-07T05:14:39;101506.84;;;19.26;65.10
20825;BME280;10573;50.936;6.978;2023-09-07T05:17:05;101517.66;;;19.13;65.29
20825;BME280;10573;50.936;6.978;2023-09-07T05:19:30;101517.59;;;19.21;65.37
20825;BME280;10573;50.936;6.978;2023-09-07T05:21:56;101518.25;;;19.23;65.15
20825;BME280;10573;50.936;6.978;2023-09-07T05:24:21;101519.59;;;19.27;64.99
20825;BME280;10573;50.936;6.978;2023-09-07T05:26:46;101517.91;;;19.26;64.89
20825;BME280;10573;50.936;6.978;2023-09-07T05:29:12;101527.34;;;19.32;64.80
20825;BME280;10573;50.936;6.978;2023-09-07T05:31:38;101531.28;;;19.37;64.53
20825;BME280;10573;50.936;6.978;2023-09-07T05:34:03;101534.22;;;19.59;64.18
20825;BME280;10573;50.936;6.978;2023-09-07T05:36:29;101523.75;;;19.69;64.14
20825;BME280;10573;50.936;6.978;2023-09-07T05:38:54;101533.09;;;19.68;63.93
20825;BME280;10573;50.936;6.978;2023-09-07T05:41:20;101534.69;;;19.86;63.50
20825;BME280;10573;50.936;6.978;2023-09-07T05:43:45;101532.66;;;19.79;62.94
20825;BME280;10573;50.936;6.978;2023-09-07T05:46:11;101533.69;;;19.78;62.75
20825;BME280;10573;50.936;6.978;2023-09-07T05:48:36;101540.91;;;19.88;62.38
20825;BME280;10573;50.936;6.978;2023-09-07T05:51:01;101540.81;;;19.96;62.62
20825;BME280;10573;50.936;6.978;2023-09-07T05:53:27;101536.34;;;20.10;62.17
20825;BME280;10573;50.936;6.978;2023-09-07T05:55:52;101529.38;;;20.14;61.96
20825;BME280;10573;50.936;6.978;2023-09-07T05:58:18;101538.09;;;20.26;62.27
20825;BME280;10573;50.936;6.978;2023-09-07T06:00:44;101538.09;;;20.26;62.09
20825;BME280;10573;50.936;6.978;2023-09-07T06:03:09;101529.47;;;20.36;61.80
20825;BME280;10573;50.936;6.978;2023-09-07T06:05:35;101535.31;;;20.41;61.18
20825;BME280;10573;50.936;6.978;2023-09-07T06:08:02;101532.38;;;20.57;60.37
20825;BME280;10573;50.936;6.978;2023-09-07T06:10:28;101531.56;;;20.63;60.72
20825;BME280;10573;50.936;6.978;2023-09-07T06:12:55;101530.44;;;20.58;60.10
20825;BME280;10573;50.936;6.978;2023-09-07T06:15:20;101530.13;;;20.68;60.11
20825;BME280;10573;50.936;6.978;2023-09-07T06:17:46;101538.00;;;20.64;59.90
20825;BME280;10573;50.936;6.978;2023-09-07T06:20:11;101539.25;;;20.76;59.44
20825;BME280;10573;50.936;6.978;2023-09-07T06:22:36;101542.28;;;20.82;59.50
20825;BME280;10573;50.936;6.978;2023-09-07T06:25:02;101541.50;;;20.88;59.31
20825;BME280;10573;50.936;6.978;2023-09-07T06:27:27;101554.84;;;20.99;60.16
20825;BME280;10573;50.936;6.978;2023-09-07T06:29:53;101551.63;;;21.17;59.07
20825;BME280;10573;50.936;6.978;2023-09-07T06:32:18;101551.56;;;21.10;58.53
20825;BME280;10573;50.936;6.978;2023-09-07T06:34:44;101557.38;;;21.16;58.55
20825;BME280;10573;50.936;6.978;2023-09-07T06:37:11;101554.00;;;21.20;57.74
20825;BME280;10573;50.936;6.978;2023-09-07T06:39:36;101557.59;;;21.36;57.74
20825;BME280;10573;50.936;6.978;2023-09-07T06:42:02;101553.03;;;21.28;57.69
20825;BME280;10573;50.936;6.978;2023-09-07T06:44:29;101558.84;;;21.33;57.16
20825;BME280;10573;50.936;6.978;2023-09-07T06:46:54;101556.81;;;21.42;57.43
20825;BME280;10573;50.936;6.978;2023-09-07T06:49:19;101563.38;;;21.56;56.70
20825;BME280;10573;50.936;6.978;2023-09-07T06:51:45;101564.13;;;21.50;56.81
20825;BME280;10573;50.936;6.978;2023-09-07T06:54:10;101564.75;;;21.67;56.68
20825;BME280;10573;50.936;6.978;2023-09-07T06:56:36;101564.81;;;21.73;56.33
20825;BME280;10573;50.936;6.978;2023-09-07T06:59:01;101565.72;;;21.81;56.46
20825;BME280;10573;50.936;6.978;2023-09-07T07:01:26;101567.97;;;21.92;55.96
20825;BME280;10573;50.936;6.978;2023-09-07T07:03:52;101563.16;;;22.07;56.01
20825;BME280;10573;50.936;6.978;2023-09-07T07:06:18;101561.75;;;22.18;55.39
20825;BME280;10573;50.936;6.978;2023-09-07T07:08:44;101563.47;;;22.19;55.01
20825;BME280;10573;50.936;6.978;2023-09-07T07:11:09;101562.34;;;22.35;54.78
20825;BME280;10573;50.936;6.978;2023-09-07T07:13:35;101567.75;;;22.50;53.96
20825;BME280;10573;50.936;6.978;2023-09-07T07:16:02;101570.13;;;22.53;54.03
20825;BME280;10573;50.936;6.978;2023-09-07T07:18:29;101570.31;;;22.52;53.84
20825;BME280;10573;50.936;6.978;2023-09-07T07:20:54;101563.84;;;22.79;53.34
20825;BME280;10573;50.936;6.978;2023-09-07T07:23:19;101566.91;;;22.98;52.87
20825;BME280;10573;50.936;6.978;2023-09-07T07:25:45;101564.66;;;23.22;52.66
20825;BME280;10573;50.936;6.978;2023-09-07T07:28:10;101566.09;;;23.11;52.33
20825;BME280;10573;50.936;6.978;2023-09-07T07:30:38;101563.63;;;23.36;52.32
20825;BME280;10573;50.936;6.978;2023-09-07T07:33:05;101561.94;;;23.62;51.42
20825;BME280;10573;50.936;6.978;2023-09-07T07:35:34;101556.66;;;23.94;51.58
20825;BME280;10573;50.936;6.978;2023-09-07T07:38:03;101559.81;;;24.31;50.91
20825;BME280;10573;50.936;6.978;2023-09-07T07:40:29;101552.03;;;24.67;49.50
20825;BME280;10573;50.936;6.978;2023-09-07T07:42:55;101543.84;;;24.78;48.87
20825;BME280;10573;50.936;6.978;2023-09-07T07:45:20;101552.44;;;25.22;48.85
20825;BME280;10573;50.936;6.978;2023-09-07T07:47:48;101542.00;;;25.43;47.89
20825;BME280;10573;50.936;6.978;2023-09-07T07:50:13;101548.00;;;25.78;46.72
20825;BME280;10573;50.936;6.978;2023-09-07T07:52:39;101549.81;;;26.17;46.31
20825;BME280;10573;50.936;6.978;2023-09-07T07:55:04;101531.81;;;26.68;45.13
20825;BME280;10573;50.936;6.978;2023-09-07T07:57:31;101534.09;;;27.08;44.15
20825;BME280;10573;50.936;6.978;2023-09-07T07:59:56;101536.69;;;27.40;42.66
20825;BME280;10573;50.936;6.978;2023-09-07T08:02:22;101541.00;;;27.67;42.58
20825;BME280;10573;50.936;6.978;2023-09-07T08:04:47;101536.75;;;27.88;42.80
20825;BME280;10573;50.936;6.978;2023-09-07T08:07:13;101533.97;;;28.00;41.49
20825;BME280;10573;50.936;6.978;2023-09-07T08:09:38;101531.38;;;28.69;40.65
20825;BME280;10573;50.936;6.978;2023-09-07T08:12:05;101528.50;;;29.22;39.55
20825;BME280;10573;50.936;6.978;2023-09-07T08:14:30;101530.03;;;29.58;38.49
20825;BME280;10573;50.936;6.978;2023-09-07T08:16:57;101534.88;;;30.31;38.13
20825;BME280;10573;50.936;6.978;2023-09-07T08:19:23;101523.59;;;30.70;37.04
20825;BME280;10573;50.936;6.978;2023-09-07T08:21:48;101530.25;;;31.36;35.38
20825;BME280;10573;50.936;6.978;2023-09-07T08:24:14;101530.31;;;31.68;35.52
20825;BME280;10573;50.936;6.978;2023-09-07T08:26:39;101529.56;;;31.51;35.28
20825;BME280;10573;50.936;6.978;2023-09-07T08:29:05;101525.28;;;31.75;34.94
20825;BME280;10573;50.936;6.978;2023-09-07T08:31:32;101524.22;;;32.72;33.76
20825;BME280;10573;50.936;6.978;2023-09-07T08:34:03;101521.41;;;32.24;34.12
20825;BME280;10573;50.936;6.978;2023-09-07T08:36:29;101521.91;;;32.64;33.72
20825;BME280;10573;50.936;6.978;2023-09-07T08:38:58;101524.03;;;33.05;33.15
20825;BME280;10573;50.936;6.978;2023-09-07T08:41:26;101515.94;;;33.70;31.65
20825;BME280;10573;50.936;6.978;2023-09-07T08:43:53;101519.06;;;33.74;32.40
20825;BME280;10573;50.936;6.978;2023-09-07T08:46:19;101521.63;;;33.86;31.88
20825;BME280;10573;50.936;6.978;2023-09-07T08:48:50;101522.16;;;33.46;32.92
20825;BME280;10573;50.936;6.978;2023-09-07T08:51:17;101519.28;;;34.29;31.66
20825;BME280;10573;50.936;6.978;2023-09-07T08:53:43;101520.00;;;34.66;30.64
20825;BME280;10573;50.936;6.978;2023-09-07T08:56:12;101515.88;;;34.37;30.84
20825;BME280;10573;50.936;6.978;2023-09-07T08:58:38;101513.28;;;35.06;30.19
20825;BME280;10573;50.936;6.978;2023-09-07T09:01:05;101509.47;;;34.76;30.47
20825;BME280;10573;50.936;6.978;2023-09-07T09:03:30;101507.13;;;34.99;30.17
20825;BME280;10573;50.936;6.978;2023-09-07T09:05:56;101510.69;;;34.65;29.84
20825;BME280;10573;50.936;6.978;2023-09-07T09:08:22;101513.66;;;34.08;30.61
20825;BME280;10573;50.936;6.978;2023-09-07T09:10:58;101518.06;;;34.56;30.32
20825;BME280;10573;50.936;6.978;2023-09-07T09:13:29;101508.34;;;34.88;29.62
20825;BME280;10573;50.936;6.978;2023-09-07T09:15:55;101511.97;;;33.56;30.88
20825;BME280;10573;50.936;6.978;2023-09-07T09:18:20;101501.56;;;34.73;30.10
20825;BME280;10573;50.936;6.978;2023-09-07T09:20:46;101509.00;;;34.54;30.50
20825;BME280;10573;50.936;6.978;2023-09-07T09:23:11;101508.50;;;34.36;31.00
20825;BME280;10573;50.936;6.978;2023-09-07T09:25:40;101505.97;;;34.24;30.36
20825;BME280;10573;50.936;6.978;2023-09-07T09:28:08;101499.28;;;34.75;30.54
20825;BME280;10573;50.936;6.978;2023-09-07T09:30:34;101492.44;;;34.92;30.07
20825;BME280;10573;50.936;6.978;2023-09-07T09:33:00;101493.06;;;34.78;30.31
20825;BME280;10573;50.936;6.978;2023-09-07T09:35:26;101489.00;;;35.00;30.22
20825;BME280;10573;50.936;6.978;2023-09-07T09:37:52;101497.16;;;34.52;30.22
20825;BME280;10573;50.936;6.978;2023-09-07T09:40:17;101491.06;;;34.79;30.14
20825;BME280;10573;50.936;6.978;2023-09-07T09:42:44;101493.06;;;35.23;29.89
20825;BME280;10573;50.936;6.978;2023-09-07T09:45:10;101482.84;;;35.27;29.78
20825;BME280;10573;50.936;6.978;2023-09-07T09:47:41;101482.84;;;35.33;29.63
20825;BME280;10573;50.936;6.978;2023-09-07T09:50:08;101487.63;;;34.92;30.51
20825;BME280;10573;50.936;6.978;2023-09-07T09:52:35;101483.94;;;34.97;30.87
20825;BME280;10573;50.936;6.978;2023-09-07T09:55:06;101486.03;;;34.66;30.80
20825;BME280;10573;50.936;6.978;2023-09-07T09:57:36;101472.38;;;35.28;30.41
20825;BME280;10573;50.936;6.978;2023-09-07T10:00:03;101481.78;;;35.18;30.14
20825;BME280;10573;50.936;6.978;2023-09-07T10:02:48;101469.66;;;35.12;30.56
20825;BME280;10573;50.936;6.978;2023-09-07T10:05:15;101480.00;;;35.67;29.88
20825;BME280;10573;50.936;6.978;2023-09-07T10:07:47;101476.09;;;35.92;29.35
20825;BME280;10573;50.936;6.978;2023-09-07T10:10:13;101463.91;;;36.40;28.96
20825;BME280;10573;50.936;6.978;2023-09-07T10:12:44;101468.84;;;35.76;29.78
20825;BME280;10573;50.936;6.978;2023-09-07T10:15:26;101460.78;;;37.04;28.56
20825;BME280;10573;50.936;6.978;2023-09-07T10:18:06;101467.00;;;36.44;28.73
20825;BME280;10573;50.936;6.978;2023-09-07T10:20:47;101458.94;;;36.51;27.95
20825;BME280;10573;50.936;6.978;2023-09-07T10:23:14;101461.00;;;36.21;28.59
20825;BME280;10573;50.936;6.978;2023-09-07T10:25:39;101461.31;;;36.44;28.64
20825;BME280;10573;50.936;6.978;2023-09-07T10:28:05;101454.28;;;36.79;28.62
20825;BME280;10573;50.936;6.978;2023-09-07T10:30:30;101450.13;;;37.29;27.79
20825;BME280;10573;50.936;6.978;2023-09-07T10:32:58;101450.25;;;37.57;27.96
20825;BME280;10573;50.936;6.978;2023-09-07T10:35:23;101441.50;;;38.28;26.71
20825;BME280;10573;50.936;6.978;2023-09-07T10:37:50;101438.69;;;37.67;27.80
20825;BME280;10573;50.936;6.978;2023-09-07T10:40:23;101443.50;;;36.82;28.28
20825;BME280;10573;50.936;6.978;2023-09-07T10:42:48;101436.63;;;37.21;27.77
20825;BME280;10573;50.936;6.978;2023-09-07T10:45:15;101432.31;;;37.42;27.74
20825;BME280;10573;50.936;6.978;2023-09-07T10:47:45;101424.63;;;37.90;26.73
20825;BME280;10573;50.936;6.978;2023-09-07T10:50:14;101418.59;;;37.77;26.45
20825;BME280;10573;50.936;6.978;2023-09-07T10:52:43;101422.50;;;37.16;28.16
20825;BME280;10573;50.936;6.978;2023-09-07T10:55:10;101416.94;;;37.90;27.21
20825;BME280;10573;50.936;6.978;2023-09-07T10:57:46;101405.81;;;37.75;26.99
20825;BME280;10573;50.936;6.978;2023-09-07T11:00:12;101417.41;;;37.65;26.62
20825;BME280;10573;50.936;6.978;2023-09-07T11:02:39;101412.94;;;36.54;28.55
20825;BME280;10573;50.936;6.978;2023-09-07T11:05:05;101421.66;;;36.77;27.95
20825;BME280;10573;50.936;6.978;2023-09-07T11:07:31;101426.69;;;37.04;28.04
20825;BME280;10573;50.936;6.978;2023-09-07T11:09:58;101419.56;;;37.21;28.04
20825;BME280;10573;50.936;6.978;2023-09-07T11:12:23;101412.13;;;37.72;27.73
20825;BME280;10573;50.936;6.978;2023-09-07T11:14:50;101401.44;;;38.38;26.65
20825;BME280;10573;50.936;6.978;2023-09-07T11:17:16;101402.06;;;38.35;26.67
20825;BME280;10573;50.936;6.978;2023-09-07T11:19:41;101402.06;;;37.80;27.36
20825;BME280;10573;50.936;6.978;2023-09-07T11:22:09;101407.97;;;37.17;28.25
20825;BME280;10573;50.936;6.978;2023-09-07T11:24:35;101408.75;;;37.56;28.10
20825;BME280;10573;50.936;6.978;2023-09-07T11:27:00;101403.97;;;38.12;27.03
20825;BME280;10573;50.936;6.978;2023-09-07T11:29:26;101399.53;;;38.34;26.99
20825;BME280;10573;50.936;6.978;2023-09-07T11:31:51;101395.38;;;38.54;26.01
20825;BME280;10573;50.936;6.978;2023-09-07T11:34:17;101391.44;;;38.64;26.47
20825;BME280;10573;50.936;6.978;2023-09-07T11:36:43;101402.41;;;38.70;26.55
20825;BME280;10573;50.936;6.978;2023-09-07T11:39:11;101398.69;;;39.52;25.65
20825;BME280;10573;50.936;6.978;2023-09-07T11:41:43;101407.88;;;39.71;25.27
20825;BME280;10573;50.936;6.978;2023-09-07T11:44:09;101394.22;;;40.00;25.15
20825;BME280;10573;50.936;6.978;2023-09-07T11:46:35;101393.22;;;39.64;25.25
20825;BME280;10573;50.936;6.978;2023-09-07T11:49:01;101393.75;;;39.66;25.13
20825;BME280;10573;50.936;6.978;2023-09-07T11:51:27;101387.16;;;39.97;24.92
20825;BME280;10573;50.936;6.978;2023-09-07T11:53:52;101394.72;;;40.02;25.00
20825;BME280;10573;50.936;6.978;2023-09-07T11:56:18;101393.63;;;39.80;24.55
20825;BME280;10573;50.936;6.978;2023-09-07T11:58:43;101380.09;;;40.70;24.22
20825;BME280;10573;50.936;6.978;2023-09-07T12:01:09;101380.59;;;40.63;23.72
20825;BME280;10573;50.936;6.978;2023-09-07T12:03:35;101387.31;;;40.67;23.91
20825;BME280;10573;50.936;6.978;2023-09-07T12:06:00;101381.56;;;40.41;23.49
20825;BME280;10573;50.936;6.978;2023-09-07T12:08:25;101388.13;;;40.41;24.18
20825;BME280;10573;50.936;6.978;2023-09-07T12:10:51;101381.28;;;40.69;24.10
20825;BME280;10573;50.936;6.978;2023-09-07T12:13:16;101394.38;;;40.52;24.00
20825;BME280;10573;50.936;6.978;2023-09-07T12:15:42;101379.50;;;40.06;23.51
20825;BME280;10573;50.936;6.978;2023-09-07T12:18:07;101382.19;;;40.20;23.89
20825;BME280;10573;50.936;6.978;2023-09-07T12:20:33;101378.88;;;39.78;24.00
20825;BME280;10573;50.936;6.978;2023-09-07T12:23:00;101383.09;;;39.81;24.24
20825;BME280;10573;50.936;6.978;2023-09-07T12:25:26;101374.31;;;40.26;24.09
20825;BME280;10573;50.936;6.978;2023-09-07T12:27:51;101370.81;;;39.80;24.24
20825;BME280;10573;50.936;6.978;2023-09-07T12:30:20;101360.22;;;40.38;23.36
20825;BME280;10573;50.936;6.978;2023-09-07T12:32:47;101358.09;;;40.53;23.28
20825;BME280;10573;50.936;6.978;2023-09-07T12:35:13;101357.41;;;40.73;23.32
20825;BME280;10573;50.936;6.978;2023-09-07T12:37:40;101362.75;;;40.49;23.47
20825;BME280;10573;50.936;6.978;2023-09-07T12:40:05;101351.09;;;41.41;22.52
20825;BME280;10573;50.936;6.978;2023-09-07T12:42:38;101344.22;;;41.25;22.91
20825;BME280;10573;50.936;6.978;2023-09-07T12:45:04;101346.19;;;41.51;22.06
20825;BME280;10573;50.936;6.978;2023-09-07T12:47:30;101341.38;;;41.72;22.46